Pagrindinis puslapis
METAR-TAF:

METAR-TAF

Oro uostai :

Otava, Ontarijas, Kanada

platuma: 45-19N, ilguma: 075-40W, Aukštis: 116 m

Dabartinis oras

Ataskaita buvo paskelbta 26 minutes, ne 01:00 UTC
Vėjas 5 kt iš Pietų/Pietvakarių
Temperatūra 16°C
Drėgmė 72%
Slėgis 1023 hPa
Matomumas: 24.1 km
Su prošvaistėmis ne aukštis 25000 ft

METAR: CYOW 200100Z 20005KT 15SM BKN250 16/11 A3022 RMK CI5 CONTRAILS SLP238

Laikas: 21:26 (01:26 UTC)

Prognozė

Ataskaita buvo paskelbta 1 valandą ir 46 minutes, ne 23:40 UTC
Prognozė galioja nuo 20 metu 00 UTC su 20 metu 24 UTC
Vėjas 3 kt nuo kintamojo kryptimis
Matomumas: 10 km
Mažai debesys ne aukštis 12000 ft
Su prošvaistėmis ne aukštis 22000 ft
Nuo 20 metu 1500 UTC
Vėjas 6 kt iš Vakarų
Matomumas: 10 km
Su prošvaistėmis ne aukštis 18000 ft
Tapsmas
nuo 20 metu 22 UTC su 20 metu 24 UTC
Vėjas 3 kt nuo kintamojo kryptimis

TAF: CYOW 192340Z 2000/2024 VRB03KT P6SM FEW120 BKN220 FM201500 27006KT P6SM BKN180 BECMG 2022/2024 VRB03KT RMK NXT FCST BY 200300Z

Orai ataskaitas ir orų prognozės (METAR, TAF).

turimą stotys yra geltonos ir raudonos taškus žemėlapyje.

Perkelti pele per norėdami pamatyti stoties vardą.

Tada spustelėkite, norėdami matyti oro stebėjimo ir prognozės.

Norėdami pakeisti žemėlapį: spustelėkite ant žalios mygtukų su juodo kryžiaus žemyn,; žalią mygtuką su brūkšneliu, jei norite nutolinti; arba žalių rodyklių gretimoms žemėlapius.


METAR-TAF: